Time;durP1;ratioP1;P1;durP2;ratioP2;P2;SDS_P1;SDS_P2;PMS_P1;PMS_P2;Temp;Humidity;BMP_temperature;BMP_pressure;BME280_temperature;BME280_humidity;BME280_pressure;Samples;Min_cycle;Max_cycle;Signal;HPM_P1;HPM_P2
2023/10/23 00:00:22;;;;;;;;;;;;;;;20.71;29.26;97881.00;5033997;28;967;-79
2023/10/23 00:02:48;;;;;;;;;;;;;;;20.88;28.75;97883.81;5017729;28;931;-79
2023/10/23 00:05:13;;;;;;;;;;;;;;;20.91;28.70;97888.59;5001085;28;1167;-78
2023/10/23 00:07:39;;;;;;;;;;;;;;;20.92;28.80;97885.31;5017420;28;1914;-79
2023/10/23 00:10:05;;;;;;;;;;;;;;;21.14;28.50;97884.75;5001284;28;1338;-79
2023/10/23 00:12:30;;;;;;;;;;;;;;;20.99;28.77;97879.50;4998782;28;1157;-79
2023/10/23 00:14:56;;;;;;;;;;;;;;;20.91;28.76;97885.78;5016403;28;945;-79
2023/10/23 00:17:21;;;;;;;;;;;;;;;20.91;28.90;97883.75;5033878;28;1204;-79
2023/10/23 00:19:47;;;;;;;;;;;;;;;20.72;29.25;97879.75;5017386;28;1146;-79
2023/10/23 00:22:12;;;;;;;;;;;;;;;20.96;28.65;97876.75;4984949;28;1149;-79
2023/10/23 00:24:38;;;;;;;;;;;;;;;20.92;28.61;97876.03;5001107;28;1207;-78
2023/10/23 00:27:03;;;;;;;;;;;;;;;20.88;28.85;97883.81;4999206;28;1131;-79
2023/10/23 00:29:29;;;;;;;;;;;;;;;20.81;28.96;97884.81;5001114;28;1969;-79
2023/10/23 00:31:54;;;;;;;;;;;;;;;20.73;28.86;97895.50;4985290;28;1305;-79
2023/10/23 00:34:20;;;;;;;;;;;;;;;20.87;28.96;97890.72;5017826;28;1053;-79
2023/10/23 00:36:46;;;;;;;;;;;;;;;21.52;28.95;97887.81;5001456;28;956;-78
2023/10/23 00:39:11;;;;;;;;;;;;;;;21.80;28.97;97883.34;5001043;28;1076;-78
2023/10/23 00:41:38;;;;;;;;;;;;;;;21.91;29.40;97892.31;5001263;28;1182;-79
2023/10/23 00:44:03;;;;;;;;;;;;;;;21.43;30.81;97891.28;5000399;28;1100;-79
2023/10/23 00:46:30;;;;;;;;;;;;;;;21.33;30.97;97887.50;5000963;28;991;-78
2023/10/23 00:48:56;;;;;;;;;;;;;;;21.22;30.54;97898.28;5000966;28;1906;-79
2023/10/23 00:51:21;;;;;;;;;;;;;;;21.22;30.34;97895.44;4968755;28;1107;-78
2023/10/23 00:53:47;;;;;;;;;;;;;;;21.27;30.30;97899.78;5000775;28;1123;-79
2023/10/23 00:56:12;;;;;;;;;;;;;;;21.11;30.40;97897.78;4984653;28;1030;-79
2023/10/23 00:58:40;;;;;;;;;;;;;;;20.91;30.58;97894.25;5001000;28;1057;-79
2023/10/23 01:01:06;;;;;;;;;;;;;;;20.88;30.50;97897.97;4984495;28;1234;-79
2023/10/23 01:03:32;;;;;;;;;;;;;;;20.74;30.82;97890.66;5000732;28;939;-78
2023/10/23 01:05:58;;;;;;;;;;;;;;;20.97;30.28;97889.66;5001851;28;1164;-79
2023/10/23 01:08:23;;;;;;;;;;;;;;;20.85;30.58;97884.72;5017789;28;1906;-78
2023/10/23 01:10:49;;;;;;;;;;;;;;;20.57;30.72;97898.31;5019247;28;1039;-79
2023/10/23 01:13:14;;;;;;;;;;;;;;;20.64;30.80;97892.50;5001374;28;985;-79
2023/10/23 01:15:40;;;;;;;;;;;;;;;20.71;30.63;97897.19;5018532;28;971;-79
2023/10/23 01:18:06;;;;;;;;;;;;;;;21.02;29.96;97894.78;5019012;28;988;-79
2023/10/23 01:20:31;;;;;;;;;;;;;;;20.89;30.43;97896.75;5002116;28;1138;-79
2023/10/23 01:22:57;;;;;;;;;;;;;;;21.19;29.58;97899.19;5001334;28;1113;-78
2023/10/23 01:25:22;;;;;;;;;;;;;;;21.02;29.91;97900.44;5001567;28;1227;-79
2023/10/23 01:27:48;;;;;;;;;;;;;;;20.89;30.18;97902.41;5017590;28;1906;-78
2023/10/23 01:30:13;;;;;;;;;;;;;;;20.69;30.05;97894.78;5019338;28;917;-78
2023/10/23 01:32:39;;;;;;;;;;;;;;;20.87;29.77;97904.84;5056336;28;1188;-79
2023/10/23 01:35:05;;;;;;;;;;;;;;;21.06;29.50;97901.13;5055936;28;986;-79
2023/10/23 01:37:30;;;;;;;;;;;;;;;21.01;29.63;97901.69;5022640;28;1063;-79
2023/10/23 01:39:56;;;;;;;;;;;;;;;21.04;29.33;97900.81;5022376;28;913;-79
2023/10/23 01:42:21;;;;;;;;;;;;;;;20.88;29.74;97895.13;5056450;28;966;-78
2023/10/23 01:44:47;;;;;;;;;;;;;;;20.71;29.93;97894.34;5022746;28;1211;-79
2023/10/23 01:47:12;;;;;;;;;;;;;;;20.72;29.72;97887.44;5022893;28;1237;-78
2023/10/23 01:49:38;;;;;;;;;;;;;;;20.74;29.72;97896.31;5039290;28;1906;-79
2023/10/23 01:52:03;;;;;;;;;;;;;;;20.79;29.56;97899.41;5039212;28;947;-79
2023/10/23 01:54:29;;;;;;;;;;;;;;;20.67;29.90;97897.25;5019261;28;1260;-78
2023/10/23 01:56:54;;;;;;;;;;;;;;;20.81;29.58;97896.91;5035620;28;1017;-79
2023/10/23 01:59:20;;;;;;;;;;;;;;;21.12;29.12;97902.19;5019305;28;1280;-78
2023/10/23 02:01:45;;;;;;;;;;;;;;;20.79;29.76;97905.06;5035684;28;1280;-79
2023/10/23 02:04:11;;;;;;;;;;;;;;;20.66;29.99;97898.50;5004832;28;1324;-79
2023/10/23 02:06:36;;;;;;;;;;;;;;;20.81;29.43;97907.44;4999831;28;1089;-78
2023/10/23 02:09:02;;;;;;;;;;;;;;;20.94;29.15;97910.34;5015681;28;1985;-79
2023/10/23 02:11:28;;;;;;;;;;;;;;;20.85;29.44;97913.00;4983505;28;935;-79
2023/10/23 02:13:53;;;;;;;;;;;;;;;20.46;30.13;97921.16;4983139;28;913;-78
2023/10/23 02:16:19;;;;;;;;;;;;;;;20.79;29.60;97909.91;5015638;28;1069;-79
2023/10/23 02:18:44;;;;;;;;;;;;;;;20.76;29.63;97911.56;4999204;28;1177;-79
2023/10/23 02:21:10;;;;;;;;;;;;;;;20.67;29.51;97917.03;4983266;28;1192;-79
2023/10/23 02:23:35;;;;;;;;;;;;;;;20.91;29.18;97911.22;5015474;28;978;-79
2023/10/23 02:26:02;;;;;;;;;;;;;;;21.10;29.05;97921.66;4999473;28;1299;-78
2023/10/23 02:28:28;;;;;;;;;;;;;;;21.02;28.97;97928.72;4999001;28;1989;-79
2023/10/23 02:30:54;;;;;;;;;;;;;;;20.79;29.49;97922.00;5015663;28;993;-79
2023/10/23 02:33:19;;;;;;;;;;;;;;;20.94;29.40;97927.31;4998670;28;1190;-78
2023/10/23 02:35:45;;;;;;;;;;;;;;;20.96;29.07;97922.81;5016469;28;921;-79
2023/10/23 02:38:10;;;;;;;;;;;;;;;20.74;29.79;97928.19;5016292;28;964;-78
2023/10/23 02:40:36;;;;;;;;;;;;;;;21.07;28.88;97926.16;5016747;28;1190;-79
2023/10/23 02:43:03;;;;;;;;;;;;;;;20.95;29.37;97934.56;5016436;28;942;-79
2023/10/23 02:45:28;;;;;;;;;;;;;;;21.12;29.05;97927.66;5016137;28;1427;-79
2023/10/23 02:47:54;;;;;;;;;;;;;;;20.95;29.21;97928.91;5000173;28;1910;-78
2023/10/23 02:50:20;;;;;;;;;;;;;;;21.01;29.17;97929.97;4999654;28;1199;-79
2023/10/23 02:52:45;;;;;;;;;;;;;;;20.90;29.45;97932.28;5016222;28;953;-79
2023/10/23 02:55:11;;;;;;;;;;;;;;;20.95;29.12;97934.56;5016026;28;1266;-79
2023/10/23 02:57:36;;;;;;;;;;;;;;;21.01;29.01;97932.78;4997737;28;1135;-79
2023/10/23 03:00:05;;;;;;;;;;;;;;;20.89;29.07;97933.50;5015707;28;1258;-79
2023/10/23 03:02:30;;;;;;;;;;;;;;;21.02;29.10;97934.38;5013151;28;1303;-79
2023/10/23 03:04:56;;;;;;;;;;;;;;;20.68;29.55;97932.78;5016441;28;920;-79
2023/10/23 03:07:21;;;;;;;;;;;;;;;20.73;29.32;97923.78;4999645;28;1107;-78
2023/10/23 03:09:47;;;;;;;;;;;;;;;20.75;29.47;97921.31;4999273;28;1910;-79
2023/10/23 03:12:12;;;;;;;;;;;;;;;20.83;29.45;97926.78;5016953;28;1340;-78
2023/10/23 03:14:38;;;;;;;;;;;;;;;20.91;28.93;97939.50;5016903;28;1178;-79
2023/10/23 03:17:03;;;;;;;;;;;;;;;20.53;29.47;97937.97;5015095;28;1298;-79
2023/10/23 03:19:29;;;;;;;;;;;;;;;20.90;28.96;97937.94;5016210;28;1265;-78
2023/10/23 03:21:55;;;;;;;;;;;;;;;20.65;29.15;97939.31;5015955;28;1931;-79
2023/10/23 03:24:21;;;;;;;;;;;;;;;20.69;29.14;97934.38;4991713;28;1511;-78
2023/10/23 03:26:46;;;;;;;;;;;;;;;20.58;29.16;97944.34;5007074;28;1317;-79
2023/10/23 03:29:12;;;;;;;;;;;;;;;20.84;29.03;97934.84;5009665;28;1966;-79
2023/10/23 03:31:38;;;;;;;;;;;;;;;20.96;28.87;97941.81;5032232;28;976;-79
2023/10/23 03:34:04;;;;;;;;;;;;;;;20.64;28.97;97939.75;5015338;28;874;-79
2023/10/23 03:36:29;;;;;;;;;;;;;;;21.13;29.16;97946.22;5016746;28;902;-79
2023/10/23 03:38:55;;;;;;;;;;;;;;;21.55;29.00;97943.53;5016655;28;1031;-79
2023/10/23 03:41:20;;;;;;;;;;;;;;;21.44;29.51;97943.81;5015623;28;1321;-79
2023/10/23 03:43:46;;;;;;;;;;;;;;;21.55;29.62;97949.19;5032446;28;1029;-79
2023/10/23 03:46:11;;;;;;;;;;;;;;;21.30;30.04;97935.72;5019110;28;1125;-79
2023/10/23 03:48:37;;;;;;;;;;;;;;;21.26;29.98;97938.59;5057012;28;1968;-79
2023/10/23 03:51:03;;;;;;;;;;;;;;;20.86;30.35;97937.22;5057837;28;1032;-79
2023/10/23 03:53:28;;;;;;;;;;;;;;;20.78;30.33;97945.88;5007530;28;1235;-78
2023/10/23 03:55:54;;;;;;;;;;;;;;;20.74;30.30;97945.16;5047441;28;1517;-79
2023/10/23 03:58:19;;;;;;;;;;;;;;;20.81;30.07;97947.81;5037425;28;1013;-78
2023/10/23 04:00:45;;;;;;;;;;;;;;;20.85;29.87;97941.28;5037339;28;1307;-79
2023/10/23 04:03:11;;;;;;;;;;;;;;;20.75;30.04;97938.25;5024078;28;1437;-78
2023/10/23 04:05:40;;;;;;;;;;;;;;;20.67;30.24;97948.16;5025065;28;1654;-79
2023/10/23 04:08:05;;;;;;;;;;;;;;;20.81;30.06;97947.81;5040769;28;1902;-80
2023/10/23 04:10:31;;;;;;;;;;;;;;;20.89;29.83;97947.66;5008698;28;1164;-78
2023/10/23 04:12:57;;;;;;;;;;;;;;;20.68;30.25;97952.59;5025038;28;924;-79
2023/10/23 04:15:23;;;;;;;;;;;;;;;20.69;30.21;97957.00;5057611;28;893;-79
2023/10/23 04:17:49;;;;;;;;;;;;;;;20.65;29.86;97953.44;5057523;28;982;-79
2023/10/23 04:20:14;;;;;;;;;;;;;;;20.80;29.78;97959.56;5026596;28;1721;-79
2023/10/23 04:22:40;;;;;;;;;;;;;;;20.86;29.52;97952.16;5040059;28;904;-79
2023/10/23 04:25:05;;;;;;;;;;;;;;;20.69;29.87;97954.16;5039317;28;1023;-78
2023/10/23 04:27:31;;;;;;;;;;;;;;;20.79;29.78;97955.94;5039872;28;1902;-79
2023/10/23 04:29:57;;;;;;;;;;;;;;;20.59;30.19;97957.25;5005985;28;1304;-78
2023/10/23 04:32:22;;;;;;;;;;;;;;;20.75;29.82;97958.06;5022390;28;853;-78
2023/10/23 04:34:48;;;;;;;;;;;;;;;20.75;29.53;97960.88;5005616;28;1222;-79
2023/10/23 04:37:14;;;;;;;;;;;;;;;21.03;28.98;97962.22;5040142;28;939;-78
2023/10/23 04:39:39;;;;;;;;;;;;;;;20.67;29.65;97962.28;5021818;28;955;-79
2023/10/23 04:42:05;;;;;;;;;;;;;;;20.83;29.56;97966.38;4989676;28;1136;-79
2023/10/23 04:44:31;;;;;;;;;;;;;;;20.75;29.32;97972.19;5005572;28;1177;-79
2023/10/23 04:46:56;;;;;;;;;;;;;;;20.86;29.27;97965.50;4981194;28;981;-78
2023/10/23 04:49:22;;;;;;;;;;;;;;;20.47;30.07;97967.22;4997494;28;1987;-79
2023/10/23 04:51:47;;;;;;;;;;;;;;;20.47;29.82;97975.69;4981162;28;1185;-79
2023/10/23 04:54:13;;;;;;;;;;;;;;;21.02;28.86;97985.28;4997750;28;1051;-79
2023/10/23 04:56:41;;;;;;;;;;;;;;;20.57;29.55;97976.66;4981136;28;1281;-78
2023/10/23 04:59:07;;;;;;;;;;;;;;;20.74;29.61;97981.94;4997753;28;971;-79
2023/10/23 05:01:33;;;;;;;;;;;;;;;20.80;29.48;97979.38;4997452;28;959;-79
2023/10/23 05:03:58;;;;;;;;;;;;;;;20.87;29.00;97984.03;4997268;28;1030;-79
2023/10/23 05:06:27;;;;;;;;;;;;;;;20.70;29.49;97977.59;4997400;28;938;-79
2023/10/23 05:08:52;;;;;;;;;;;;;;;20.68;29.33;97986.50;4981224;28;1995;-79
2023/10/23 05:11:18;;;;;;;;;;;;;;;20.72;29.24;97983.59;4958270;29;993;-79
2023/10/23 05:13:46;;;;;;;;;;;;;;;20.49;29.90;97987.34;4941134;29;1156;-79
2023/10/23 05:16:12;;;;;;;;;;;;;;;20.70;29.15;97989.69;4958679;29;970;-79
2023/10/23 05:18:38;;;;;;;;;;;;;;;20.83;29.22;97988.97;4957497;28;949;-79
2023/10/23 05:21:07;;;;;;;;;;;;;;;20.76;29.32;97990.75;4962262;28;908;-78
2023/10/23 05:23:32;;;;;;;;;;;;;;;20.37;30.00;97988.00;4977660;28;996;-79
2023/10/23 05:25:58;;;;;;;;;;;;;;;20.90;29.33;97991.66;4981215;28;1147;-79
2023/10/23 05:28:25;;;;;;;;;;;;;;;21.54;28.73;97998.56;4996575;28;1972;-79
2023/10/23 05:30:50;;;;;;;;;;;;;;;21.52;29.27;98001.06;4980901;28;903;-78
2023/10/23 05:33:16;;;;;;;;;;;;;;;21.57;29.53;98004.13;4960931;28;947;-79
2023/10/23 05:35:41;;;;;;;;;;;;;;;21.32;29.52;98010.44;4961086;28;989;-79
2023/10/23 05:38:07;;;;;;;;;;;;;;;21.18;30.08;98007.13;4961322;28;1124;-78
2023/10/23 05:40:32;;;;;;;;;;;;;;;21.31;29.30;98002.41;4977206;28;818;-79
2023/10/23 05:42:58;;;;;;;;;;;;;;;21.05;29.70;98012.72;4977066;28;1049;-79
2023/10/23 05:45:23;;;;;;;;;;;;;;;20.99;29.63;98018.09;4976753;28;1067;-79
2023/10/23 05:47:49;;;;;;;;;;;;;;;20.97;29.83;98023.38;4979367;28;1985;-78
2023/10/23 05:50:14;;;;;;;;;;;;;;;21.17;29.59;98023.31;4980298;28;927;-79
2023/10/23 05:52:40;;;;;;;;;;;;;;;21.15;29.41;98028.63;4980277;28;995;-78
2023/10/23 05:55:08;;;;;;;;;;;;;;;20.99;29.52;98028.63;4964257;28;1875;-79
2023/10/23 05:57:34;;;;;;;;;;;;;;;20.74;29.91;98032.81;4979987;28;1307;-78
2023/10/23 05:59:59;;;;;;;;;;;;;;;20.94;29.81;98035.59;4979938;28;946;-78
2023/10/23 06:02:25;;;;;;;;;;;;;;;20.98;29.62;98032.66;4980003;28;1242;-79
2023/10/23 06:04:50;;;;;;;;;;;;;;;20.83;30.06;98051.19;5010068;28;1200;-79
2023/10/23 06:07:16;;;;;;;;;;;;;;;20.58;30.37;98041.25;5020516;28;887;-79
2023/10/23 06:09:42;;;;;;;;;;;;;;;20.79;30.10;98040.78;4998835;28;1910;-79
2023/10/23 06:12:09;;;;;;;;;;;;;;;20.93;29.71;98044.50;4983111;28;950;-79
2023/10/23 06:14:35;;;;;;;;;;;;;;;20.77;29.80;98048.88;4983296;28;1164;-79
2023/10/23 06:17:00;;;;;;;;;;;;;;;20.85;29.62;98048.75;4996042;28;988;-79
2023/10/23 06:19:26;;;;;;;;;;;;;;;20.68;29.90;98042.25;4996465;28;1136;-79
2023/10/23 06:21:51;;;;;;;;;;;;;;;20.84;30.10;98052.81;4963689;28;1016;-79
2023/10/23 06:24:17;;;;;;;;;;;;;;;20.88;29.83;98048.69;4995989;28;1001;-79
2023/10/23 06:26:42;;;;;;;;;;;;;;;20.72;29.89;98052.25;4980057;28;936;-78
2023/10/23 06:29:08;;;;;;;;;;;;;;;21.13;29.21;98048.06;4963504;28;1982;-79
2023/10/23 06:31:33;;;;;;;;;;;;;;;21.06;29.14;98045.41;4979664;28;1230;-78
2023/10/23 06:33:59;;;;;;;;;;;;;;;20.95;29.39;98047.72;4979301;28;984;-79
2023/10/23 06:36:24;;;;;;;;;;;;;;;20.81;29.55;98048.81;4979567;28;1571;-79
2023/10/23 06:38:50;;;;;;;;;;;;;;;20.69;29.85;98050.31;4988098;28;1403;-79
2023/10/23 06:41:16;;;;;;;;;;;;;;;20.88;29.57;98056.34;4972891;28;1631;-79
2023/10/23 06:43:41;;;;;;;;;;;;;;;20.83;29.54;98056.84;4965061;28;1532;-77
2023/10/23 06:46:07;;;;;;;;;;;;;;;20.90;29.52;98056.72;4977234;28;1559;-78
2023/10/23 06:48:32;;;;;;;;;;;;;;;20.64;29.90;98050.81;4997631;28;1981;-78
2023/10/23 06:50:58;;;;;;;;;;;;;;;20.95;29.37;98061.84;5019497;28;1162;-79
2023/10/23 06:53:24;;;;;;;;;;;;;;;20.89;29.59;98061.56;5002872;28;1080;-78
2023/10/23 06:55:53;;;;;;;;;;;;;;;20.93;29.61;98061.47;4986155;28;1250;-79
2023/10/23 06:58:21;;;;;;;;;;;;;;;20.63;30.05;98054.88;5019039;28;919;-78
2023/10/23 07:00:47;;;;;;;;;;;;;;;20.80;29.60;98052.88;5019657;28;1038;-79
2023/10/23 07:03:13;;;;;;;;;;;;;;;20.80;29.83;98053.69;5019339;28;841;-79
2023/10/23 07:05:41;;;;;;;;;;;;;;;20.67;29.92;98058.41;5019523;28;879;-78
2023/10/23 07:08:07;;;;;;;;;;;;;;;20.92;29.53;98068.38;5018815;28;1898;-79
2023/10/23 07:10:33;;;;;;;;;;;;;;;20.59;30.27;98059.03;4975824;28;983;-78
2023/10/23 07:12:58;;;;;;;;;;;;;;;20.55;30.17;98067.56;4959481;28;1001;-79
2023/10/23 07:15:24;;;;;;;;;;;;;;;21.05;29.58;98063.63;4956134;28;962;-79
2023/10/23 07:17:49;;;;;;;;;;;;;;;21.15;29.50;98062.59;4956272;29;930;-78
2023/10/23 07:20:17;;;;;;;;;;;;;;;20.70;29.99;98057.53;4972245;28;941;-79
2023/10/23 07:22:42;;;;;;;;;;;;;;;21.08;29.35;98062.75;4972149;28;962;-78
2023/10/23 07:25:08;;;;;;;;;;;;;;;20.81;29.89;98058.09;4972132;28;984;-79
2023/10/23 07:27:35;;;;;;;;;;;;;;;20.99;29.63;98065.41;4940370;29;966;-78
2023/10/23 07:30:01;;;;;;;;;;;;;;;20.67;30.28;98071.75;4955987;29;1910;-79
2023/10/23 07:32:26;;;;;;;;;;;;;;;20.83;29.74;98068.16;4972300;28;910;-79
2023/10/23 07:34:51;;;;;;;;;;;;;;;21.06;29.43;98071.69;4955702;28;941;-78
2023/10/23 07:37:20;;;;;;;;;;;;;;;20.97;29.78;98063.00;4955534;29;948;-78
2023/10/23 07:39:49;;;;;;;;;;;;;;;21.03;29.67;98060.44;4940062;28;1127;-79
2023/10/23 07:42:15;;;;;;;;;;;;;;;20.91;29.88;98061.94;5022309;28;1021;-79
2023/10/23 07:44:43;;;;;;;;;;;;;;;20.99;29.69;98065.41;4978784;28;1662;-78
2023/10/23 07:47:09;;;;;;;;;;;;;;;20.97;29.71;98063.00;5010845;28;1721;-79
2023/10/23 07:49:35;;;;;;;;;;;;;;;20.85;29.79;98065.72;4981616;28;1985;-79
2023/10/23 07:52:00;;;;;;;;;;;;;;;21.14;29.58;98066.66;5016612;28;1574;-78
2023/10/23 07:54:26;;;;;;;;;;;;;;;21.39;29.23;98066.06;5000684;28;1629;-78
2023/10/23 07:56:55;;;;;;;;;;;;;;;20.92;29.94;98059.88;5022918;28;1584;-79
2023/10/23 07:59:21;;;;;;;;;;;;;;;21.29;29.09;98059.38;5000446;28;1476;-79
2023/10/23 08:01:47;;;;;;;;;;;;;;;20.79;29.90;98063.41;5000792;28;1567;-79
2023/10/23 08:04:13;;;;;;;;;;;;;;;20.61;30.47;98063.00;5013094;28;1432;-79
2023/10/23 08:06:38;;;;;;;;;;;;;;;20.89;29.95;98061.56;5003136;28;1648;-78
2023/10/23 08:09:05;;;;;;;;;;;;;;;20.55;30.52;98059.09;4992818;28;1991;-78
2023/10/23 08:11:30;;;;;;;;;;;;;;;20.78;30.34;98061.81;4975107;28;1035;-79
2023/10/23 08:13:56;;;;;;;;;;;;;;;20.80;30.39;98058.53;4974822;28;913;-78
2023/10/23 08:16:21;;;;;;;;;;;;;;;20.95;29.99;98062.66;4975374;28;1100;-78
2023/10/23 08:18:47;;;;;;;;;;;;;;;21.26;29.54;98057.47;4974964;28;884;-79
2023/10/23 08:21:12;;;;;;;;;;;;;;;21.18;29.34;98056.03;4975259;28;979;-79
2023/10/23 08:23:39;;;;;;;;;;;;;;;21.05;29.68;98063.63;4977017;28;920;-79
2023/10/23 08:26:04;;;;;;;;;;;;;;;21.12;29.71;98057.00;4978261;28;1035;-79
2023/10/23 08:28:30;;;;;;;;;;;;;;;21.10;29.70;98054.63;4962038;28;1918;-79
2023/10/23 08:30:55;;;;;;;;;;;;;;;21.24;29.29;98064.78;4955586;29;992;-79
2023/10/23 08:33:21;;;;;;;;;;;;;;;21.24;29.56;98065.59;4923843;29;936;-79
2023/10/23 08:35:46;;;;;;;;;;;;;;;21.20;29.64;98052.78;4901499;29;1085;-80
2023/10/23 08:38:12;;;;;;;;;;;;;;;20.68;30.29;98062.84;4901841;29;951;-80
2023/10/23 08:40:37;;;;;;;;;;;;;;;21.11;29.81;98073.19;4931236;29;1019;-79
2023/10/23 08:43:03;;;;;;;;;;;;;;;21.11;29.68;98067.53;4920969;29;983;-78
2023/10/23 08:45:28;;;;;;;;;;;;;;;21.06;29.63;98073.72;4917049;29;1220;-80
2023/10/23 08:47:54;;;;;;;;;;;;;;;20.91;30.14;98070.41;4902845;29;1977;-79
2023/10/23 08:50:19;;;;;;;;;;;;;;;20.97;29.96;98067.84;4905015;29;984;-79
2023/10/23 08:52:47;;;;;;;;;;;;;;;20.55;30.85;98067.56;4904836;29;985;-79
2023/10/23 08:55:13;;;;;;;;;;;;;;;21.02;29.92;98061.69;4920335;29;1001;-79
2023/10/23 08:57:43;;;;;;;;;;;;;;;21.01;29.99;98062.91;4889521;29;939;-79
2023/10/23 09:00:10;;;;;;;;;;;;;;;20.84;30.38;98064.13;4889227;29;938;-79
2023/10/23 09:02:35;;;;;;;;;;;;;;;20.99;30.03;98060.53;4950433;29;935;-79
2023/10/23 09:05:01;;;;;;;;;;;;;;;20.81;30.48;98060.13;4926688;29;1020;-79
2023/10/23 09:07:26;;;;;;;;;;;;;;;21.01;30.13;98057.25;4971974;28;1121;-78
2023/10/23 09:09:52;;;;;;;;;;;;;;;21.16;29.57;98064.19;5000759;28;1975;-79
2023/10/23 09:12:33;;;;;;;;;;;;;;;20.79;30.53;98068.28;4984522;28;1167;-79
2023/10/23 09:15:11;;;;;;;;;;;;;;;20.72;30.58;98066.38;4958400;28;981;-79
2023/10/23 09:17:37;;;;;;;;;;;;;;;21.04;30.18;98057.19;4961637;28;939;-79
2023/10/23 09:20:13;;;;;;;;;;;;;;;21.02;29.96;98058.84;4961302;28;1604;-79
2023/10/23 09:22:38;;;;;;;;;;;;;;;20.86;30.57;98053.97;4965495;28;1677;-79
2023/10/23 09:25:07;;;;;;;;;;;;;;;21.07;30.10;98058.31;4975964;28;1654;-79
2023/10/23 09:27:32;;;;;;;;;;;;;;;20.99;30.34;98065.41;4977572;28;1573;-79
2023/10/23 09:30:02;;;;;;;;;;;;;;;20.81;30.41;98058.09;4968286;28;1906;-79
2023/10/23 09:32:29;;;;;;;;;;;;;;;20.67;30.65;98043.47;4977794;28;896;-79
2023/10/23 09:34:56;;;;;;;;;;;;;;;20.85;30.63;98048.75;4961516;28;1344;-79
2023/10/23 09:37:24;;;;;;;;;;;;;;;20.68;30.81;98045.88;4977544;28;995;-78
2023/10/23 09:39:50;;;;;;;;;;;;;;;21.09;29.93;98047.38;4944763;28;972;-78
2023/10/23 09:42:16;;;;;;;;;;;;;;;21.33;29.62;98046.00;4977384;28;1038;-78
2023/10/23 09:44:41;;;;;;;;;;;;;;;21.39;29.63;98034.94;4977589;28;1050;-78
2023/10/23 09:47:07;;;;;;;;;;;;;;;21.18;30.11;98032.59;5020069;28;982;-77
2023/10/23 09:49:33;;;;;;;;;;;;;;;21.22;29.69;98022.78;5003958;28;1956;-78
2023/10/23 09:51:59;;;;;;;;;;;;;;;21.28;29.97;98021.00;5004366;28;1004;-78
2023/10/23 09:54:24;;;;;;;;;;;;;;;21.05;30.37;98024.03;5004274;28;1186;-77
2023/10/23 09:56:50;;;;;;;;;;;;;;;21.12;30.20;98023.84;5004705;28;844;-78
2023/10/23 09:59:17;;;;;;;;;;;;;;;21.19;30.19;98028.53;5003701;28;1158;-78
2023/10/23 10:01:43;;;;;;;;;;;;;;;21.24;30.06;98031.66;5019200;28;1191;-79
2023/10/23 10:04:13;;;;;;;;;;;;;;;20.94;30.56;98012.19;5019038;28;988;-78
2023/10/23 10:06:42;;;;;;;;;;;;;;;20.97;30.30;98016.94;5002742;28;935;-78
2023/10/23 10:09:12;;;;;;;;;;;;;;;21.18;30.08;98007.94;4996117;28;1918;-78
2023/10/23 10:11:39;;;;;;;;;;;;;;;21.04;30.11;98003.44;4979860;28;1055;-78
2023/10/23 10:14:04;;;;;;;;;;;;;;;21.05;30.47;97999.38;4979983;28;1014;-77
2023/10/23 10:16:30;;;;;;;;;;;;;;;21.36;29.74;97992.59;4960027;28;1899;-78
2023/10/23 10:18:55;;;;;;;;;;;;;;;21.22;29.82;97983.19;4976810;28;1225;-78
2023/10/23 10:21:21;;;;;;;;;;;;;;;21.09;30.12;97990.78;4976721;28;1248;-79
2023/10/23 10:23:47;;;;;;;;;;;;;;;21.31;29.91;97986.22;4976423;28;1171;-78
2023/10/23 10:26:12;;;;;;;;;;;;;;;21.19;29.96;97983.25;4976611;28;916;-77
2023/10/23 10:28:40;;;;;;;;;;;;;;;20.65;30.87;97983.75;4975933;28;1914;-78
2023/10/23 10:31:06;;;;;;;;;;;;;;;21.03;30.50;97998.19;4976347;28;965;-77
2023/10/23 10:33:31;;;;;;;;;;;;;;;20.99;30.65;97981.34;4944076;28;1629;-77
2023/10/23 10:36:00;;;;;;;;;;;;;;;21.25;30.15;97982.31;4960467;28;1100;-78
2023/10/23 10:38:26;;;;;;;;;;;;;;;21.10;30.27;97980.28;4975787;28;962;-78
2023/10/23 10:40:57;;;;;;;;;;;;;;;21.02;30.58;97982.47;4991570;28;1033;-78
2023/10/23 10:43:23;;;;;;;;;;;;;;;21.01;30.52;97975.22;4982497;28;1639;-77
2023/10/23 10:45:49;;;;;;;;;;;;;;;21.10;30.38;97975.41;4998649;28;1102;-78
2023/10/23 10:48:15;;;;;;;;;;;;;;;21.02;30.49;97980.44;4982403;28;1879;-77
2023/10/23 10:50:41;;;;;;;;;;;;;;;21.25;29.99;97970.97;5015259;28;997;-78
2023/10/23 10:53:06;;;;;;;;;;;;;;;21.18;30.06;97971.16;4982593;28;1187;-78
2023/10/23 10:55:33;;;;;;;;;;;;;;;21.05;30.58;97973.09;4979079;28;1124;-78
2023/10/23 10:57:59;;;;;;;;;;;;;;;21.18;30.44;97976.81;4978978;28;917;-77
2023/10/23 11:00:28;;;;;;;;;;;;;;;21.29;30.17;97965.22;4978788;28;932;-77
2023/10/23 11:02:55;;;;;;;;;;;;;;;21.14;30.50;97959.16;4962624;28;999;-77
2023/10/23 11:05:20;;;;;;;;;;;;;;;21.08;30.55;97967.34;4992021;28;1355;-78
2023/10/23 11:07:46;;;;;;;;;;;;;;;21.07;30.53;97964.97;4991721;28;1902;-77
2023/10/23 11:10:12;;;;;;;;;;;;;;;21.05;30.77;97958.97;4991640;28;1141;-78
2023/10/23 11:12:38;;;;;;;;;;;;;;;21.34;30.24;97956.22;4974936;28;1266;-78
2023/10/23 11:15:04;;;;;;;;;;;;;;;21.35;30.32;97957.00;4991679;28;1296;-77
2023/10/23 11:17:30;;;;;;;;;;;;;;;21.28;30.18;97953.09;4975310;28;1103;-78
2023/10/23 11:19:55;;;;;;;;;;;;;;;21.44;30.10;97948.69;4975468;28;1446;-77
2023/10/23 11:22:25;;;;;;;;;;;;;;;21.05;30.68;97939.16;4959544;28;922;-78
2023/10/23 11:24:51;;;;;;;;;;;;;;;21.10;30.57;97955.59;4991315;28;979;-77
2023/10/23 11:27:16;;;;;;;;;;;;;;;21.04;30.49;97955.34;5002163;28;1569;-78
2023/10/23 11:29:43;;;;;;;;;;;;;;;21.05;30.59;97956.13;5036192;28;1906;-78
2023/10/23 11:32:08;;;;;;;;;;;;;;;21.18;30.77;97954.16;5002547;28;1000;-77
2023/10/23 11:34:37;;;;;;;;;;;;;;;21.30;30.46;97947.84;4999468;28;1143;-78
2023/10/23 11:37:06;;;;;;;;;;;;;;;21.07;30.57;97943.13;5019270;28;948;-77
2023/10/23 11:39:32;;;;;;;;;;;;;;;21.17;30.60;97935.59;5018578;28;913;-78
2023/10/23 11:41:58;;;;;;;;;;;;;;;21.36;30.38;97927.47;4986176;28;1231;-78
2023/10/23 11:44:23;;;;;;;;;;;;;;;21.35;30.26;97934.34;4998696;28;1191;-78
2023/10/23 11:46:49;;;;;;;;;;;;;;;21.28;30.55;97927.63;5015865;28;965;-79
2023/10/23 11:49:18;;;;;;;;;;;;;;;21.18;30.77;97925.88;4999008;28;1906;-78
2023/10/23 11:51:45;;;;;;;;;;;;;;;21.22;30.80;97937.09;4981974;28;1074;-78
2023/10/23 11:54:11;;;;;;;;;;;;;;;21.30;30.47;97930.84;5015065;28;904;-78
2023/10/23 11:56:36;;;;;;;;;;;;;;;21.28;30.33;97921.97;5014724;28;863;-78
2023/10/23 11:59:03;;;;;;;;;;;;;;;21.33;30.18;97938.44;4998965;28;1119;-78
2023/10/23 12:01:30;;;;;;;;;;;;;;;21.32;30.14;97930.41;4979732;28;1580;-78
2023/10/23 12:03:55;;;;;;;;;;;;;;;21.17;30.51;97931.97;5013897;28;934;-79
2023/10/23 12:06:21;;;;;;;;;;;;;;;21.09;30.71;97922.91;4997374;28;934;-78
2023/10/23 12:08:46;;;;;;;;;;;;;;;21.23;30.76;97930.19;4996933;28;1985;-78
2023/10/23 12:11:12;;;;;;;;;;;;;;;21.12;30.67;97922.00;4995826;28;1286;-78
2023/10/23 12:13:39;;;;;;;;;;;;;;;21.29;30.33;97929.22;4991805;28;1631;-78
2023/10/23 12:16:04;;;;;;;;;;;;;;;21.37;30.36;97932.69;4977609;28;1673;-78
2023/10/23 12:18:30;;;;;;;;;;;;;;;21.42;30.12;97928.53;4976962;28;1471;-78
2023/10/23 12:20:55;;;;;;;;;;;;;;;21.17;30.92;97929.94;4993931;28;1745;-78
2023/10/23 12:23:22;;;;;;;;;;;;;;;21.27;30.40;97934.53;4980142;28;1588;-79
2023/10/23 12:25:47;;;;;;;;;;;;;;;21.03;30.89;97925.44;4981778;28;1614;-78
2023/10/23 12:28:13;;;;;;;;;;;;;;;21.37;30.44;97931.91;4981416;28;1906;-79
2023/10/23 12:30:38;;;;;;;;;;;;;;;21.42;30.07;97940.66;4997983;28;957;-78
2023/10/23 12:33:05;;;;;;;;;;;;;;;21.20;30.62;97939.59;4981349;28;1305;-78
2023/10/23 12:35:30;;;;;;;;;;;;;;;21.16;30.78;97933.22;4953983;29;969;-78
2023/10/23 12:37:56;;;;;;;;;;;;;;;21.39;30.14;97932.25;4943060;29;971;-79
2023/10/23 12:40:21;;;;;;;;;;;;;;;21.26;30.17;97935.78;4926944;29;1144;-79
2023/10/23 12:42:47;;;;;;;;;;;;;;;21.03;30.86;97935.97;4942621;29;945;-79
2023/10/23 12:45:12;;;;;;;;;;;;;;;20.97;30.94;97932.88;4956918;28;1087;-79
2023/10/23 12:47:38;;;;;;;;;;;;;;;21.35;30.25;97935.19;4962050;28;1276;-79
2023/10/23 12:50:04;;;;;;;;;;;;;;;21.46;30.22;97934.91;4961640;28;1902;-79
2023/10/23 12:52:29;;;;;;;;;;;;;;;21.04;30.89;97934.75;4945797;28;1219;-78